sensor_id;sensor_type;location;lat;lon;timestamp;pressure;altitude;pressure_sealevel;temperature;humidity
45523;BME280;31254;51.680;5.394;2023-05-02T00:01:56;102047.78;;;12.17;77.27
45523;BME280;31254;51.680;5.394;2023-05-02T00:04:28;102051.81;;;12.13;77.29
45523;BME280;31254;51.680;5.394;2023-05-02T00:06:57;102052.44;;;12.05;77.25
45523;BME280;31254;51.680;5.394;2023-05-02T00:09:24;102010.88;;;11.79;77.24
45523;BME280;31254;51.680;5.394;2023-05-02T00:11:51;102064.50;;;12.03;77.31
45523;BME280;31254;51.680;5.394;2023-05-02T00:14:18;102045.25;;;11.93;77.68
45523;BME280;31254;51.680;5.394;2023-05-02T00:16:44;102041.78;;;11.91;77.60
45523;BME280;31254;51.680;5.394;2023-05-02T00:19:12;102061.88;;;12.01;77.78
45523;BME280;31254;51.680;5.394;2023-05-02T00:21:41;102070.22;;;12.00;77.71
45523;BME280;31254;51.680;5.394;2023-05-02T00:24:08;102073.09;;;11.98;77.74
45523;BME280;31254;51.680;5.394;2023-05-02T00:26:35;102068.91;;;11.94;78.03
45523;BME280;31254;51.680;5.394;2023-05-02T00:29:02;102067.50;;;11.88;77.70
45523;BME280;31254;51.680;5.394;2023-05-02T00:31:30;102053.59;;;11.80;77.55
45523;BME280;31254;51.680;5.394;2023-05-02T00:33:57;102056.47;;;11.79;77.69
45523;BME280;31254;51.680;5.394;2023-05-02T00:36:24;102052.03;;;11.66;77.99
45523;BME280;31254;51.680;5.394;2023-05-02T00:38:53;102066.94;;;11.62;78.02
45523;BME280;31254;51.680;5.394;2023-05-02T00:41:20;102068.22;;;11.58;78.15
45523;BME280;31254;51.680;5.394;2023-05-02T00:43:49;102068.09;;;11.60;78.45
45523;BME280;31254;51.680;5.394;2023-05-02T00:46:16;102044.50;;;11.47;78.79
45523;BME280;31254;51.680;5.394;2023-05-02T00:48:43;102051.81;;;11.58;78.55
45523;BME280;31254;51.680;5.394;2023-05-02T00:51:10;102066.94;;;11.62;78.82
45523;BME280;31254;51.680;5.394;2023-05-02T00:53:39;102062.63;;;11.60;78.64
45523;BME280;31254;51.680;5.394;2023-05-02T00:56:07;102056.50;;;11.56;78.73
45523;BME280;31254;51.680;5.394;2023-05-02T00:58:34;102066.34;;;11.59;78.56
45523;BME280;31254;51.680;5.394;2023-05-02T01:07:13;102078.50;;;11.55;78.57
45523;BME280;31254;51.680;5.394;2023-05-02T01:13:06;102062.75;;;11.47;78.35
45523;BME280;31254;51.680;5.394;2023-05-02T01:15:37;102042.50;;;11.38;78.98
45523;BME280;31254;51.680;5.394;2023-05-02T01:18:11;102059.25;;;11.56;79.11
45523;BME280;31254;51.680;5.394;2023-05-02T01:20:43;102057.41;;;11.57;79.19
45523;BME280;31254;51.680;5.394;2023-05-02T01:26:14;102061.72;;;11.59;78.88
45523;BME280;31254;51.680;5.394;2023-05-02T01:29:02;102069.94;;;11.59;79.19
45523;BME280;31254;51.680;5.394;2023-05-02T01:31:38;102051.28;;;11.53;79.38
45523;BME280;31254;51.680;5.394;2023-05-02T01:34:09;102038.06;;;11.37;79.21
45523;BME280;31254;51.680;5.394;2023-05-02T01:36:43;102071.31;;;11.65;79.75
45523;BME280;31254;51.680;5.394;2023-05-02T01:39:14;102060.13;;;11.57;79.84
45523;BME280;31254;51.680;5.394;2023-05-02T01:41:45;102055.53;;;11.57;79.76
45523;BME280;31254;51.680;5.394;2023-05-02T01:44:19;102063.00;;;11.55;79.82
45523;BME280;31254;51.680;5.394;2023-05-02T01:46:48;102085.56;;;11.68;79.91
45523;BME280;31254;51.680;5.394;2023-05-02T01:49:17;102082.84;;;11.68;79.89
45523;BME280;31254;51.680;5.394;2023-05-02T01:51:46;102076.78;;;11.53;80.22
45523;BME280;31254;51.680;5.394;2023-05-02T01:54:15;102071.31;;;11.53;80.04
45523;BME280;31254;51.680;5.394;2023-05-02T01:56:46;102081.59;;;11.61;80.19
45523;BME280;31254;51.680;5.394;2023-05-02T01:59:17;102081.88;;;11.58;80.08
45523;BME280;31254;51.680;5.394;2023-05-02T02:01:47;102102.84;;;11.69;80.22
45523;BME280;31254;51.680;5.394;2023-05-02T02:04:16;102097.75;;;11.64;80.46
45523;BME280;31254;51.680;5.394;2023-05-02T02:06:48;102076.91;;;11.52;80.21
45523;BME280;31254;51.680;5.394;2023-05-02T02:09:17;102100.88;;;11.60;79.89
45523;BME280;31254;51.680;5.394;2023-05-02T02:14:38;102110.41;;;11.65;80.19
45523;BME280;31254;51.680;5.394;2023-05-02T02:17:45;102106.59;;;11.57;80.42
45523;BME280;31254;51.680;5.394;2023-05-02T02:20:09;102118.00;;;11.62;80.30
45523;BME280;31254;51.680;5.394;2023-05-02T02:22:38;102119.00;;;11.61;80.22
45523;BME280;31254;51.680;5.394;2023-05-02T02:25:10;102128.22;;;11.60;80.61
45523;BME280;31254;51.680;5.394;2023-05-02T02:27:43;102109.81;;;11.50;80.28
45523;BME280;31254;51.680;5.394;2023-05-02T02:30:10;102106.06;;;11.51;80.39
45523;BME280;31254;51.680;5.394;2023-05-02T02:32:38;102125.47;;;11.60;80.52
45523;BME280;31254;51.680;5.394;2023-05-02T02:35:07;102125.59;;;11.58;80.54
45523;BME280;31254;51.680;5.394;2023-05-02T02:51:02;102140.25;;;11.57;81.09
45523;BME280;31254;51.680;5.394;2023-05-02T02:56:18;102123.38;;;11.52;81.08
45523;BME280;31254;51.680;5.394;2023-05-02T03:01:23;102129.56;;;11.54;81.18
45523;BME280;31254;51.680;5.394;2023-05-02T03:03:52;102147.47;;;11.58;81.41
45523;BME280;31254;51.680;5.394;2023-05-02T03:06:20;102152.16;;;11.56;81.50
45523;BME280;31254;51.680;5.394;2023-05-02T03:08:47;102154.03;;;11.56;81.86
45523;BME280;31254;51.680;5.394;2023-05-02T03:11:14;102143.72;;;11.48;81.66
45523;BME280;31254;51.680;5.394;2023-05-02T03:13:41;102159.13;;;11.49;82.01
45523;BME280;31254;51.680;5.394;2023-05-02T03:16:28;102156.88;;;11.31;82.21
45523;BME280;31254;51.680;5.394;2023-05-02T03:18:59;102142.00;;;11.24;81.81
45523;BME280;31254;51.680;5.394;2023-05-02T03:21:26;102117.50;;;11.00;82.10
45523;BME280;31254;51.680;5.394;2023-05-02T03:23:52;102167.81;;;11.31;82.01
45523;BME280;31254;51.680;5.394;2023-05-02T03:26:19;102169.69;;;11.31;82.02
45523;BME280;31254;51.680;5.394;2023-05-02T03:28:46;102175.78;;;11.34;82.33
45523;BME280;31254;51.680;5.394;2023-05-02T03:31:13;102148.53;;;11.10;82.16
45523;BME280;31254;51.680;5.394;2023-05-02T03:33:41;102198.84;;;11.30;82.01
45523;BME280;31254;51.680;5.394;2023-05-02T03:36:08;102187.66;;;11.22;82.11
45523;BME280;31254;51.680;5.394;2023-05-02T03:38:35;102185.44;;;11.16;81.91
45523;BME280;31254;51.680;5.394;2023-05-02T03:41:02;102193.63;;;11.16;81.65
45523;BME280;31254;51.680;5.394;2023-05-02T03:43:34;102193.59;;;11.05;81.53
45523;BME280;31254;51.680;5.394;2023-05-02T03:46:06;102189.72;;;10.96;81.27
45523;BME280;31254;51.680;5.394;2023-05-02T03:48:40;102203.03;;;11.01;80.86
45523;BME280;31254;51.680;5.394;2023-05-02T03:51:09;102207.47;;;10.90;80.49
45523;BME280;31254;51.680;5.394;2023-05-02T03:53:38;102222.59;;;10.94;80.44
45523;BME280;31254;51.680;5.394;2023-05-02T03:56:07;102202.59;;;10.83;80.16
45523;BME280;31254;51.680;5.394;2023-05-02T03:58:34;102228.41;;;10.90;80.13
45523;BME280;31254;51.680;5.394;2023-05-02T04:01:02;102204.69;;;10.79;79.52
45523;BME280;31254;51.680;5.394;2023-05-02T04:03:28;102223.19;;;10.87;79.59
45523;BME280;31254;51.680;5.394;2023-05-02T04:05:55;102237.97;;;10.84;79.62
45523;BME280;31254;51.680;5.394;2023-05-02T04:08:27;102187.72;;;10.51;79.19
45523;BME280;31254;51.680;5.394;2023-05-02T04:10:56;102228.81;;;10.61;78.82
45523;BME280;31254;51.680;5.394;2023-05-02T04:13:25;102247.03;;;10.60;79.29
45523;BME280;31254;51.680;5.394;2023-05-02T04:15:55;102240.41;;;10.52;79.24
45523;BME280;31254;51.680;5.394;2023-05-02T04:18:24;102229.72;;;10.49;79.10
45523;BME280;31254;51.680;5.394;2023-05-02T04:20:53;102213.53;;;10.34;78.81
45523;BME280;31254;51.680;5.394;2023-05-02T04:23:20;102238.38;;;10.42;78.84
45523;BME280;31254;51.680;5.394;2023-05-02T04:25:54;102216.38;;;10.20;78.63
45523;BME280;31254;51.680;5.394;2023-05-02T04:28:22;102243.41;;;10.36;78.94
45523;BME280;31254;51.680;5.394;2023-05-02T04:30:49;102270.03;;;10.45;78.87
45523;BME280;31254;51.680;5.394;2023-05-02T04:33:16;102264.44;;;10.47;78.31
45523;BME280;31254;51.680;5.394;2023-05-02T04:35:46;102269.91;;;10.47;78.11
45523;BME280;31254;51.680;5.394;2023-05-02T04:38:15;102275.13;;;10.50;78.25
45523;BME280;31254;51.680;5.394;2023-05-02T04:40:45;102142.69;;;9.72;77.86
45523;BME280;31254;51.680;5.394;2023-05-02T04:43:12;102272.75;;;10.45;77.49
45523;BME280;31254;51.680;5.394;2023-05-02T04:45:41;102260.19;;;10.42;77.43
45523;BME280;31254;51.680;5.394;2023-05-02T04:48:11;102291.91;;;10.56;76.94
45523;BME280;31254;51.680;5.394;2023-05-02T04:50:38;102281.97;;;10.55;76.79
45523;BME280;31254;51.680;5.394;2023-05-02T04:53:05;102289.81;;;10.60;77.08
45523;BME280;31254;51.680;5.394;2023-05-02T04:55:31;102306.50;;;10.68;76.43
45523;BME280;31254;51.680;5.394;2023-05-02T04:57:58;102297.78;;;10.63;76.61
45523;BME280;31254;51.680;5.394;2023-05-02T05:00:27;102151.88;;;9.70;76.16
45523;BME280;31254;51.680;5.394;2023-05-02T05:02:54;102314.47;;;10.71;75.84
45523;BME280;31254;51.680;5.394;2023-05-02T05:05:26;102300.63;;;10.61;75.82
45523;BME280;31254;51.680;5.394;2023-05-02T05:07:53;102302.38;;;10.63;75.52
45523;BME280;31254;51.680;5.394;2023-05-02T05:10:22;102283.63;;;10.58;75.12
45523;BME280;31254;51.680;5.394;2023-05-02T05:12:49;102308.19;;;10.82;74.55
45523;BME280;31254;51.680;5.394;2023-05-02T05:15:16;102323.16;;;11.01;73.74
45523;BME280;31254;51.680;5.394;2023-05-02T05:17:43;102322.31;;;11.00;73.41
45523;BME280;31254;51.680;5.394;2023-05-02T05:20:10;102307.25;;;10.94;73.00
45523;BME280;31254;51.680;5.394;2023-05-02T05:22:40;102322.06;;;11.03;72.97
45523;BME280;31254;51.680;5.394;2023-05-02T05:25:08;102332.94;;;11.16;72.24
45523;BME280;31254;51.680;5.394;2023-05-02T05:27:35;102325.38;;;11.20;71.97
45523;BME280;31254;51.680;5.394;2023-05-02T05:30:04;102298.41;;;12.64;67.42
45523;BME280;31254;51.680;5.394;2023-05-02T05:32:34;102172.88;;;14.24;60.26
45523;BME280;31254;51.680;5.394;2023-05-02T05:35:01;102327.81;;;16.45;56.50
45523;BME280;31254;51.680;5.394;2023-05-02T05:37:30;102328.88;;;17.44;53.82
45523;BME280;31254;51.680;5.394;2023-05-02T05:39:57;102338.91;;;19.00;50.40
45523;BME280;31254;51.680;5.394;2023-05-02T05:42:27;102331.00;;;19.88;48.35
45523;BME280;31254;51.680;5.394;2023-05-02T05:44:53;102347.56;;;20.13;48.01
45523;BME280;31254;51.680;5.394;2023-05-02T05:47:20;102348.97;;;20.00;47.45
45523;BME280;31254;51.680;5.394;2023-05-02T05:49:54;102350.84;;;20.16;46.54
45523;BME280;31254;51.680;5.394;2023-05-02T05:52:23;102337.97;;;20.79;45.69
45523;BME280;31254;51.680;5.394;2023-05-02T05:54:53;102342.94;;;19.72;46.76
45523;BME280;31254;51.680;5.394;2023-05-02T05:57:21;102364.28;;;17.48;51.56
45523;BME280;31254;51.680;5.394;2023-05-02T05:59:48;102377.72;;;15.65;56.37
45523;BME280;31254;51.680;5.394;2023-05-02T06:02:16;102381.91;;;14.30;59.68
45523;BME280;31254;51.680;5.394;2023-05-02T06:04:47;102393.66;;;13.68;61.64
45523;BME280;31254;51.680;5.394;2023-05-02T06:07:14;102393.22;;;13.20;63.10
45523;BME280;31254;51.680;5.394;2023-05-02T06:09:41;102397.69;;;12.88;64.10
45523;BME280;31254;51.680;5.394;2023-05-02T06:12:08;102394.97;;;12.77;64.39
45523;BME280;31254;51.680;5.394;2023-05-02T06:14:34;102403.56;;;12.61;64.56
45523;BME280;31254;51.680;5.394;2023-05-02T06:17:01;102388.25;;;12.47;65.01
45523;BME280;31254;51.680;5.394;2023-05-02T06:19:28;102410.41;;;12.55;64.85
45523;BME280;31254;51.680;5.394;2023-05-02T06:21:57;102410.41;;;12.67;64.65
45523;BME280;31254;51.680;5.394;2023-05-02T06:24:24;102417.97;;;12.63;65.03
45523;BME280;31254;51.680;5.394;2023-05-02T06:26:51;102427.56;;;12.69;64.97
45523;BME280;31254;51.680;5.394;2023-05-02T06:29:17;102418.50;;;12.57;65.12
45523;BME280;31254;51.680;5.394;2023-05-02T06:31:44;102405.19;;;12.30;65.54
45523;BME280;31254;51.680;5.394;2023-05-02T06:34:11;102438.66;;;12.56;65.49
45523;BME280;31254;51.680;5.394;2023-05-02T06:36:38;102439.97;;;12.95;64.04
45523;BME280;31254;51.680;5.394;2023-05-02T06:39:07;102394.34;;;12.17;65.26
45523;BME280;31254;51.680;5.394;2023-05-02T06:41:34;102463.97;;;12.13;66.46
45523;BME280;31254;51.680;5.394;2023-05-02T06:44:01;102446.84;;;11.86;67.04
45523;BME280;31254;51.680;5.394;2023-05-02T06:46:28;102456.91;;;11.86;66.82
45523;BME280;31254;51.680;5.394;2023-05-02T06:48:56;102465.72;;;11.78;67.50
45523;BME280;31254;51.680;5.394;2023-05-02T06:51:23;102468.56;;;11.77;67.40
45523;BME280;31254;51.680;5.394;2023-05-02T06:53:50;102454.50;;;11.70;67.68
45523;BME280;31254;51.680;5.394;2023-05-02T06:56:17;102471.81;;;11.82;67.68
45523;BME280;31254;51.680;5.394;2023-05-02T06:58:44;102477.03;;;11.85;67.71
45523;BME280;31254;51.680;5.394;2023-05-02T07:01:14;102480.63;;;12.10;67.21
45523;BME280;31254;51.680;5.394;2023-05-02T07:03:45;102482.56;;;12.32;66.30
45523;BME280;31254;51.680;5.394;2023-05-02T07:06:18;102478.59;;;12.81;65.07
45523;BME280;31254;51.680;5.394;2023-05-02T07:08:45;102470.16;;;15.78;56.21
45523;BME280;31254;51.680;5.394;2023-05-02T07:11:14;102480.06;;;14.37;59.34
45523;BME280;31254;51.680;5.394;2023-05-02T07:13:43;102479.78;;;13.45;62.07
45523;BME280;31254;51.680;5.394;2023-05-02T07:16:18;102461.41;;;12.79;63.74
45523;BME280;31254;51.680;5.394;2023-05-02T07:18:47;102443.25;;;12.21;64.83
45523;BME280;31254;51.680;5.394;2023-05-02T07:21:14;102510.47;;;12.13;65.54
45523;BME280;31254;51.680;5.394;2023-05-02T07:23:56;102515.28;;;11.74;64.87
45523;BME280;31254;51.680;5.394;2023-05-02T07:26:23;102517.78;;;11.52;64.88
45523;BME280;31254;51.680;5.394;2023-05-02T07:28:53;102505.31;;;11.24;64.61
45523;BME280;31254;51.680;5.394;2023-05-02T07:31:20;102523.13;;;11.17;64.66
45523;BME280;31254;51.680;5.394;2023-05-02T07:33:47;102531.31;;;11.17;64.51
45523;BME280;31254;51.680;5.394;2023-05-02T07:36:13;102528.38;;;11.20;64.62
45523;BME280;31254;51.680;5.394;2023-05-02T07:38:40;102528.81;;;11.14;64.50
45523;BME280;31254;51.680;5.394;2023-05-02T07:41:09;102514.63;;;11.09;64.52
45523;BME280;31254;51.680;5.394;2023-05-02T07:43:36;102524.69;;;11.08;64.45
45523;BME280;31254;51.680;5.394;2023-05-02T07:46:04;102545.63;;;11.21;64.31
45523;BME280;31254;51.680;5.394;2023-05-02T07:48:32;102540.91;;;11.36;64.16
45523;BME280;31254;51.680;5.394;2023-05-02T07:51:07;102456.97;;;11.01;63.87
45523;BME280;31254;51.680;5.394;2023-05-02T07:53:34;102539.94;;;11.61;63.68
45523;BME280;31254;51.680;5.394;2023-05-02T07:56:05;102547.63;;;11.80;63.21
45523;BME280;31254;51.680;5.394;2023-05-02T07:58:36;102528.53;;;11.91;62.66
45523;BME280;31254;51.680;5.394;2023-05-02T08:01:05;102537.59;;;12.16;62.22
45523;BME280;31254;51.680;5.394;2023-05-02T08:03:37;102540.88;;;12.32;61.54
45523;BME280;31254;51.680;5.394;2023-05-02T08:06:10;102545.41;;;12.44;61.11
45523;BME280;31254;51.680;5.394;2023-05-02T08:08:54;102549.78;;;12.70;60.20
45523;BME280;31254;51.680;5.394;2023-05-02T08:11:39;102520.19;;;12.75;59.79
45523;BME280;31254;51.680;5.394;2023-05-02T08:14:09;102552.16;;;12.97;59.33
45523;BME280;31254;51.680;5.394;2023-05-02T08:16:44;102547.94;;;13.49;57.96
45523;BME280;31254;51.680;5.394;2023-05-02T08:19:16;102545.94;;;13.51;57.75
45523;BME280;31254;51.680;5.394;2023-05-02T08:22:05;102557.81;;;13.73;57.64
45523;BME280;31254;51.680;5.394;2023-05-02T08:24:47;102541.34;;;13.84;57.01
45523;BME280;31254;51.680;5.394;2023-05-02T08:27:24;102518.31;;;13.76;56.50
45523;BME280;31254;51.680;5.394;2023-05-02T08:29:50;102550.72;;;14.14;55.96
45523;BME280;31254;51.680;5.394;2023-05-02T08:32:17;102555.31;;;14.56;55.30
45523;BME280;31254;51.680;5.394;2023-05-02T08:34:47;102554.31;;;16.96;49.50
45523;BME280;31254;51.680;5.394;2023-05-02T08:37:14;102550.47;;;16.50;49.59
45523;BME280;31254;51.680;5.394;2023-05-02T08:39:42;102573.94;;;14.94;52.56
45523;BME280;31254;51.680;5.394;2023-05-02T08:42:11;102426.50;;;13.59;54.34
45523;BME280;31254;51.680;5.394;2023-05-02T08:44:38;102585.16;;;14.60;53.91
45523;BME280;31254;51.680;5.394;2023-05-02T08:47:05;102558.31;;;14.95;52.76
45523;BME280;31254;51.680;5.394;2023-05-02T08:49:36;102552.03;;;14.41;53.85
45523;BME280;31254;51.680;5.394;2023-05-02T08:52:04;102573.31;;;14.06;54.61
45523;BME280;31254;51.680;5.394;2023-05-02T08:54:39;102592.56;;;13.95;54.98
45523;BME280;31254;51.680;5.394;2023-05-02T08:57:06;102597.03;;;14.61;53.83
45523;BME280;31254;51.680;5.394;2023-05-02T08:59:35;102570.94;;;14.55;52.88
45523;BME280;31254;51.680;5.394;2023-05-02T09:05:00;102600.75;;;14.06;54.40
45523;BME280;31254;51.680;5.394;2023-05-02T09:07:45;102602.41;;;13.86;55.12
45523;BME280;31254;51.680;5.394;2023-05-02T09:10:15;102606.78;;;13.89;55.05
45523;BME280;31254;51.680;5.394;2023-05-02T09:12:42;102607.94;;;13.75;54.67
45523;BME280;31254;51.680;5.394;2023-05-02T09:15:14;102613.78;;;13.93;54.54
45523;BME280;31254;51.680;5.394;2023-05-02T09:17:47;102620.41;;;13.79;55.00
45523;BME280;31254;51.680;5.394;2023-05-02T09:20:15;102627.25;;;13.85;55.00
45523;BME280;31254;51.680;5.394;2023-05-02T09:22:52;102604.06;;;13.78;55.03
45523;BME280;31254;51.680;5.394;2023-05-02T09:25:19;102585.50;;;14.14;53.27
45523;BME280;31254;51.680;5.394;2023-05-02T09:27:53;102622.63;;;14.61;52.68
45523;BME280;31254;51.680;5.394;2023-05-02T09:30:22;102621.66;;;14.93;51.46
45523;BME280;31254;51.680;5.394;2023-05-02T09:32:52;102635.63;;;14.59;52.75
45523;BME280;31254;51.680;5.394;2023-05-02T09:35:24;102630.00;;;14.29;53.75
45523;BME280;31254;51.680;5.394;2023-05-02T09:40:21;102643.53;;;13.98;54.59
45523;BME280;31254;51.680;5.394;2023-05-02T09:42:51;102645.31;;;13.87;54.30
45523;BME280;31254;51.680;5.394;2023-05-02T09:45:22;102649.59;;;13.80;53.91
45523;BME280;31254;51.680;5.394;2023-05-02T09:47:54;102655.88;;;14.03;53.25
45523;BME280;31254;51.680;5.394;2023-05-02T09:50:36;102644.53;;;14.40;52.23
45523;BME280;31254;51.680;5.394;2023-05-02T09:53:07;102648.34;;;14.17;52.45
45523;BME280;31254;51.680;5.394;2023-05-02T09:55:35;102656.75;;;14.04;52.38
45523;BME280;31254;51.680;5.394;2023-05-02T09:58:02;102658.00;;;14.11;52.66
45523;BME280;31254;51.680;5.394;2023-05-02T10:00:41;102655.41;;;13.98;52.74
45523;BME280;31254;51.680;5.394;2023-05-02T10:03:08;102640.53;;;14.01;52.39
45523;BME280;31254;51.680;5.394;2023-05-02T10:05:37;102660.59;;;14.13;51.58
45523;BME280;31254;51.680;5.394;2023-05-02T10:08:07;102665.84;;;14.16;50.76
45523;BME280;31254;51.680;5.394;2023-05-02T10:10:36;102660.91;;;14.31;50.80
45523;BME280;31254;51.680;5.394;2023-05-02T10:13:04;102654.56;;;14.51;50.44
45523;BME280;31254;51.680;5.394;2023-05-02T10:15:36;102656.09;;;14.97;49.90
45523;BME280;31254;51.680;5.394;2023-05-02T10:21:07;102595.09;;;15.04;48.74
45523;BME280;31254;51.680;5.394;2023-05-02T10:23:35;102658.78;;;15.09;48.90
45523;BME280;31254;51.680;5.394;2023-05-02T10:26:03;102663.94;;;15.02;49.03
45523;BME280;31254;51.680;5.394;2023-05-02T10:28:30;102655.72;;;14.81;48.81
45523;BME280;31254;51.680;5.394;2023-05-02T10:30:59;102670.72;;;14.98;49.04
45523;BME280;31254;51.680;5.394;2023-05-02T10:33:28;102669.38;;;14.71;48.63
45523;BME280;31254;51.680;5.394;2023-05-02T10:35:57;102678.22;;;14.75;48.85
45523;BME280;31254;51.680;5.394;2023-05-02T10:38:25;102676.75;;;14.71;47.80
45523;BME280;31254;51.680;5.394;2023-05-02T10:40:56;102665.03;;;14.57;47.01
45523;BME280;31254;51.680;5.394;2023-05-02T10:43:31;102677.63;;;14.92;47.42
45523;BME280;31254;51.680;5.394;2023-05-02T10:46:02;102673.84;;;15.35;47.63
45523;BME280;31254;51.680;5.394;2023-05-02T10:48:29;102671.72;;;15.80;46.64
45523;BME280;31254;51.680;5.394;2023-05-02T10:50:58;102672.03;;;15.86;46.48
45523;BME280;31254;51.680;5.394;2023-05-02T10:53:30;102671.84;;;15.47;46.38
45523;BME280;31254;51.680;5.394;2023-05-02T10:56:20;102668.84;;;15.50;46.93
45523;BME280;31254;51.680;5.394;2023-05-02T10:58:48;102675.72;;;15.76;46.52
45523;BME280;31254;51.680;5.394;2023-05-02T11:06:28;102682.16;;;15.76;46.38
45523;BME280;31254;51.680;5.394;2023-05-02T11:11:41;102688.34;;;15.47;46.59
45523;BME280;31254;51.680;5.394;2023-05-02T11:14:10;102686.69;;;15.35;46.96
45523;BME280;31254;51.680;5.394;2023-05-02T11:22:31;102705.63;;;15.28;46.51
45523;BME280;31254;51.680;5.394;2023-05-02T11:24:58;102690.75;;;15.31;46.03
45523;BME280;31254;51.680;5.394;2023-05-02T11:35:24;102686.78;;;15.54;44.93
45523;BME280;31254;51.680;5.394;2023-05-02T11:38:02;102692.88;;;15.27;45.09
45523;BME280;31254;51.680;5.394;2023-05-02T11:40:30;102689.78;;;15.21;45.51
45523;BME280;31254;51.680;5.394;2023-05-02T11:43:11;102647.94;;;14.86;45.54
45523;BME280;31254;51.680;5.394;2023-05-02T11:45:39;102690.00;;;15.08;45.21
45523;BME280;31254;51.680;5.394;2023-05-02T11:48:08;102687.31;;;14.96;44.92
45523;BME280;31254;51.680;5.394;2023-05-02T11:50:47;102684.25;;;15.11;44.93
45523;BME280;31254;51.680;5.394;2023-05-02T11:53:21;102687.72;;;15.65;44.40
45523;BME280;31254;51.680;5.394;2023-05-02T11:55:59;102683.09;;;16.16;43.61
45523;BME280;31254;51.680;5.394;2023-05-02T11:58:29;102654.84;;;15.63;43.54
45523;BME280;31254;51.680;5.394;2023-05-02T12:01:10;102690.34;;;15.66;43.43
45523;BME280;31254;51.680;5.394;2023-05-02T12:03:38;102695.13;;;15.74;43.57
45523;BME280;31254;51.680;5.394;2023-05-02T12:06:15;102668.72;;;15.62;43.44
45523;BME280;31254;51.680;5.394;2023-05-02T12:08:47;102690.88;;;15.60;43.19
45523;BME280;31254;51.680;5.394;2023-05-02T12:11:23;102703.25;;;15.45;43.48
45523;BME280;31254;51.680;5.394;2023-05-02T12:13:50;102702.59;;;15.31;43.19
45523;BME280;31254;51.680;5.394;2023-05-02T12:16:20;102702.09;;;15.47;42.67
45523;BME280;31254;51.680;5.394;2023-05-02T12:18:47;102704.22;;;15.65;42.59
45523;BME280;31254;51.680;5.394;2023-05-02T12:21:14;102705.34;;;15.62;42.49
45523;BME280;31254;51.680;5.394;2023-05-02T12:23:41;102714.81;;;16.00;42.52
45523;BME280;31254;51.680;5.394;2023-05-02T12:26:20;102712.00;;;16.41;42.16
45523;BME280;31254;51.680;5.394;2023-05-02T12:28:53;102712.13;;;16.39;42.13
45523;BME280;31254;51.680;5.394;2023-05-02T12:31:20;102691.66;;;16.22;41.87
45523;BME280;31254;51.680;5.394;2023-05-02T12:33:48;102715.13;;;16.17;42.60
45523;BME280;31254;51.680;5.394;2023-05-02T12:36:17;102727.28;;;16.14;42.03
45523;BME280;31254;51.680;5.394;2023-05-02T12:38:52;102729.75;;;16.07;41.92
45523;BME280;31254;51.680;5.394;2023-05-02T12:41:34;102741.16;;;16.03;42.45
45523;BME280;31254;51.680;5.394;2023-05-02T12:44:03;102722.13;;;15.59;42.69
45523;BME280;31254;51.680;5.394;2023-05-02T12:46:32;102722.28;;;15.58;42.74
45523;BME280;31254;51.680;5.394;2023-05-02T12:49:06;102733.22;;;15.48;42.97
45523;BME280;31254;51.680;5.394;2023-05-02T12:51:39;102726.63;;;15.29;43.05
45523;BME280;31254;51.680;5.394;2023-05-02T12:54:06;102738.75;;;15.27;42.67
45523;BME280;31254;51.680;5.394;2023-05-02T12:56:40;102739.59;;;15.27;43.21
45523;BME280;31254;51.680;5.394;2023-05-02T12:59:07;102737.69;;;15.18;43.54
45523;BME280;31254;51.680;5.394;2023-05-02T13:01:36;102745.03;;;15.17;43.71
45523;BME280;31254;51.680;5.394;2023-05-02T13:04:05;102743.53;;;15.25;43.32
45523;BME280;31254;51.680;5.394;2023-05-02T13:06:36;102738.41;;;15.20;42.87
45523;BME280;31254;51.680;5.394;2023-05-02T13:09:04;102735.28;;;15.25;42.41
45523;BME280;31254;51.680;5.394;2023-05-02T13:11:33;102747.78;;;15.39;42.03
45523;BME280;31254;51.680;5.394;2023-05-02T13:14:02;102739.31;;;15.51;41.92
45523;BME280;31254;51.680;5.394;2023-05-02T13:16:31;102732.25;;;15.80;41.71
45523;BME280;31254;51.680;5.394;2023-05-02T13:19:03;102742.09;;;15.82;41.95
45523;BME280;31254;51.680;5.394;2023-05-02T13:21:34;102735.28;;;15.77;41.76
45523;BME280;31254;51.680;5.394;2023-05-02T13:24:01;102731.72;;;15.65;42.33
45523;BME280;31254;51.680;5.394;2023-05-02T13:26:29;102726.19;;;15.55;42.54
45523;BME280;31254;51.680;5.394;2023-05-02T13:29:00;102721.50;;;15.46;42.62
45523;BME280;31254;51.680;5.394;2023-05-02T13:31:29;102729.56;;;15.16;42.45
45523;BME280;31254;51.680;5.394;2023-05-02T13:34:04;102744.03;;;14.97;42.75
45523;BME280;31254;51.680;5.394;2023-05-02T13:36:31;102688.69;;;14.81;42.74
45523;BME280;31254;51.680;5.394;2023-05-02T13:38:58;102704.97;;;15.15;42.74
45523;BME280;31254;51.680;5.394;2023-05-02T13:41:27;102731.78;;;15.23;42.61
45523;BME280;31254;51.680;5.394;2023-05-02T13:43:54;102736.66;;;14.98;43.27
45523;BME280;31254;51.680;5.394;2023-05-02T13:46:21;102751.88;;;14.81;43.23
45523;BME280;31254;51.680;5.394;2023-05-02T13:48:48;102754.78;;;14.68;43.31
45523;BME280;31254;51.680;5.394;2023-05-02T13:51:17;102736.09;;;14.62;42.91
45523;BME280;31254;51.680;5.394;2023-05-02T13:53:44;102748.34;;;14.47;42.64
45523;BME280;31254;51.680;5.394;2023-05-02T13:56:12;102750.31;;;14.56;42.52
45523;BME280;31254;51.680;5.394;2023-05-02T13:58:39;102751.53;;;14.74;42.26
45523;BME280;31254;51.680;5.394;2023-05-02T14:01:08;102747.72;;;14.87;42.01
45523;BME280;31254;51.680;5.394;2023-05-02T14:03:34;102747.78;;;14.96;42.10
45523;BME280;31254;51.680;5.394;2023-05-02T14:06:02;102729.13;;;15.11;42.07
45523;BME280;31254;51.680;5.394;2023-05-02T14:08:28;102734.78;;;15.41;41.73